sensor_id;sensor_type;location;lat;lon;timestamp;P1;P2;P0
80628;PMS5003;69983;42.370;-71.210;2023-05-07T00:01:07;55;50;
80628;PMS5003;69983;42.370;-71.210;2023-05-07T00:03:32;45;36;
80628;PMS5003;69983;42.370;-71.210;2023-05-07T00:05:57;382;341;
80628;PMS5003;69983;42.370;-71.210;2023-05-07T00:08:22;180;165;
80628;PMS5003;69983;42.370;-71.210;2023-05-07T00:10:48;137;120;
80628;PMS5003;69983;42.370;-71.210;2023-05-07T00:13:13;104;91;
80628;PMS5003;69983;42.370;-71.210;2023-05-07T00:15:38;67;65;
80628;PMS5003;69983;42.370;-71.210;2023-05-07T00:18:04;59;55;
80628;PMS5003;69983;42.370;-71.210;2023-05-07T00:20:30;46;43;
80628;PMS5003;69983;42.370;-71.210;2023-05-07T00:22:55;96;90;
80628;PMS5003;69983;42.370;-71.210;2023-05-07T00:25:21;410;357;
80628;PMS5003;69983;42.370;-71.210;2023-05-07T00:27:47;318;293;
80628;PMS5003;69983;42.370;-71.210;2023-05-07T00:30:13;232;212;
80628;PMS5003;69983;42.370;-71.210;2023-05-07T00:32:38;178;160;
80628;PMS5003;69983;42.370;-71.210;2023-05-07T00:35:04;127;116;
80628;PMS5003;69983;42.370;-71.210;2023-05-07T00:37:29;101;91;
80628;PMS5003;69983;42.370;-71.210;2023-05-07T00:39:54;82;77;
80628;PMS5003;69983;42.370;-71.210;2023-05-07T00:42:19;95;89;
80628;PMS5003;69983;42.370;-71.210;2023-05-07T00:44:44;216;195;
80628;PMS5003;69983;42.370;-71.210;2023-05-07T00:47:10;179;160;
80628;PMS5003;69983;42.370;-71.210;2023-05-07T00:49:37;125;112;
80628;PMS5003;69983;42.370;-71.210;2023-05-07T00:52:01;92;86;
80628;PMS5003;69983;42.370;-71.210;2023-05-07T00:54:27;153;139;
80628;PMS5003;69983;42.370;-71.210;2023-05-07T00:56:51;133;120;
80628;PMS5003;69983;42.370;-71.210;2023-05-07T00:59:16;108;94;
80628;PMS5003;69983;42.370;-71.210;2023-05-07T01:01:41;88;69;
80628;PMS5003;69983;42.370;-71.210;2023-05-07T01:04:07;72;59;
80628;PMS5003;69983;42.370;-71.210;2023-05-07T01:06:33;60;50;
80628;PMS5003;69983;42.370;-71.210;2023-05-07T01:08:58;48;45;
80628;PMS5003;69983;42.370;-71.210;2023-05-07T01:11:24;39;33;
80628;PMS5003;69983;42.370;-71.210;2023-05-07T01:13:49;27;25;
80628;PMS5003;69983;42.370;-71.210;2023-05-07T01:16:14;18;18;
80628;PMS5003;69983;42.370;-71.210;2023-05-07T01:18:40;20;18;
80628;PMS5003;69983;42.370;-71.210;2023-05-07T01:21:05;16;16;
80628;PMS5003;69983;42.370;-71.210;2023-05-07T01:23:31;19;14;
80628;PMS5003;69983;42.370;-71.210;2023-05-07T01:25:57;248;221;
80628;PMS5003;69983;42.370;-71.210;2023-05-07T01:28:22;115;102;
80628;PMS5003;69983;42.370;-71.210;2023-05-07T01:30:49;84;73;
80628;PMS5003;69983;42.370;-71.210;2023-05-07T01:33:13;60;57;
80628;PMS5003;69983;42.370;-71.210;2023-05-07T01:35:38;57;49;
80628;PMS5003;69983;42.370;-71.210;2023-05-07T01:38:03;44;38;
80628;PMS5003;69983;42.370;-71.210;2023-05-07T01:40:28;29;29;
80628;PMS5003;69983;42.370;-71.210;2023-05-07T01:42:53;23;21;
80628;PMS5003;69983;42.370;-71.210;2023-05-07T01:45:18;21;19;
80628;PMS5003;69983;42.370;-71.210;2023-05-07T01:47:44;14;12;
80628;PMS5003;69983;42.370;-71.210;2023-05-07T01:50:09;14;13;
80628;PMS5003;69983;42.370;-71.210;2023-05-07T01:52:35;11;11;
80628;PMS5003;69983;42.370;-71.210;2023-05-07T01:54:59;8;8;
80628;PMS5003;69983;42.370;-71.210;2023-05-07T01:57:25;8;5;
80628;PMS5003;69983;42.370;-71.210;2023-05-07T01:59:50;5;5;
80628;PMS5003;69983;42.370;-71.210;2023-05-07T02:02:15;4;4;
80628;PMS5003;69983;42.370;-71.210;2023-05-07T02:04:40;3;3;
80628;PMS5003;69983;42.370;-71.210;2023-05-07T02:07:05;7;7;
80628;PMS5003;69983;42.370;-71.210;2023-05-07T02:09:30;7;5;
80628;PMS5003;69983;42.370;-71.210;2023-05-07T02:11:55;3;2;
80628;PMS5003;69983;42.370;-71.210;2023-05-07T02:14:21;4;4;
80628;PMS5003;69983;42.370;-71.210;2023-05-07T02:16:46;4;4;
80628;PMS5003;69983;42.370;-71.210;2023-05-07T02:19:11;6;3;
80628;PMS5003;69983;42.370;-71.210;2023-05-07T02:21:36;3;3;
80628;PMS5003;69983;42.370;-71.210;2023-05-07T02:24:01;4;4;
80628;PMS5003;69983;42.370;-71.210;2023-05-07T02:26:26;4;2;
80628;PMS5003;69983;42.370;-71.210;2023-05-07T02:28:51;2;2;
80628;PMS5003;69983;42.370;-71.210;2023-05-07T02:31:16;2;2;
80628;PMS5003;69983;42.370;-71.210;2023-05-07T02:33:41;3;3;
80628;PMS5003;69983;42.370;-71.210;2023-05-07T02:36:07;2;0;
80628;PMS5003;69983;42.370;-71.210;2023-05-07T02:38:31;2;2;
80628;PMS5003;69983;42.370;-71.210;2023-05-07T02:40:57;5;1;
80628;PMS5003;69983;42.370;-71.210;2023-05-07T02:43:22;2;2;
80628;PMS5003;69983;42.370;-71.210;2023-05-07T02:45:48;77;65;
80628;PMS5003;69983;42.370;-71.210;2023-05-07T02:48:12;108;73;
80628;PMS5003;69983;42.370;-71.210;2023-05-07T02:50:38;135;89;
80628;PMS5003;69983;42.370;-71.210;2023-05-07T02:53:03;140;96;
80628;PMS5003;69983;42.370;-71.210;2023-05-07T02:55:28;96;60;
80628;PMS5003;69983;42.370;-71.210;2023-05-07T02:57:54;68;49;
80628;PMS5003;69983;42.370;-71.210;2023-05-07T03:00:19;58;38;
80628;PMS5003;69983;42.370;-71.210;2023-05-07T03:02:45;70;51;
80628;PMS5003;69983;42.370;-71.210;2023-05-07T03:05:10;164;122;
80628;PMS5003;69983;42.370;-71.210;2023-05-07T03:07:35;132;88;
80628;PMS5003;69983;42.370;-71.210;2023-05-07T03:10:01;86;67;
80628;PMS5003;69983;42.370;-71.210;2023-05-07T03:12:26;54;41;
80628;PMS5003;69983;42.370;-71.210;2023-05-07T03:14:52;42;31;
80628;PMS5003;69983;42.370;-71.210;2023-05-07T03:17:17;53;42;
80628;PMS5003;69983;42.370;-71.210;2023-05-07T03:19:42;187;160;
80628;PMS5003;69983;42.370;-71.210;2023-05-07T03:22:08;181;130;
80628;PMS5003;69983;42.370;-71.210;2023-05-07T03:24:33;163;119;
80628;PMS5003;69983;42.370;-71.210;2023-05-07T03:26:59;167;124;
80628;PMS5003;69983;42.370;-71.210;2023-05-07T03:29:24;110;91;
80628;PMS5003;69983;42.370;-71.210;2023-05-07T03:31:50;87;60;
80628;PMS5003;69983;42.370;-71.210;2023-05-07T03:34:16;237;196;
80628;PMS5003;69983;42.370;-71.210;2023-05-07T03:36:41;193;148;
80628;PMS5003;69983;42.370;-71.210;2023-05-07T03:39:06;185;147;
80628;PMS5003;69983;42.370;-71.210;2023-05-07T03:41:32;152;114;
80628;PMS5003;69983;42.370;-71.210;2023-05-07T03:43:57;186;126;
80628;PMS5003;69983;42.370;-71.210;2023-05-07T03:46:23;126;91;
80628;PMS5003;69983;42.370;-71.210;2023-05-07T03:48:48;89;68;
80628;PMS5003;69983;42.370;-71.210;2023-05-07T03:51:13;161;130;
80628;PMS5003;69983;42.370;-71.210;2023-05-07T03:53:39;162;132;
80628;PMS5003;69983;42.370;-71.210;2023-05-07T03:56:05;158;128;
80628;PMS5003;69983;42.370;-71.210;2023-05-07T03:58:30;148;112;
80628;PMS5003;69983;42.370;-71.210;2023-05-07T04:00:55;137;95;
80628;PMS5003;69983;42.370;-71.210;2023-05-07T04:03:21;93;71;
80628;PMS5003;69983;42.370;-71.210;2023-05-07T04:05:46;61;39;
80628;PMS5003;69983;42.370;-71.210;2023-05-07T04:08:11;42;33;
80628;PMS5003;69983;42.370;-71.210;2023-05-07T04:10:37;36;29;
80628;PMS5003;69983;42.370;-71.210;2023-05-07T04:13:02;28;19;
80628;PMS5003;69983;42.370;-71.210;2023-05-07T04:15:28;20;15;
80628;PMS5003;69983;42.370;-71.210;2023-05-07T04:17:53;14;12;
80628;PMS5003;69983;42.370;-71.210;2023-05-07T04:20:19;13;8;
80628;PMS5003;69983;42.370;-71.210;2023-05-07T04:22:44;9;6;
80628;PMS5003;69983;42.370;-71.210;2023-05-07T04:25:10;6;3;
80628;PMS5003;69983;42.370;-71.210;2023-05-07T04:27:35;5;4;
80628;PMS5003;69983;42.370;-71.210;2023-05-07T04:30:00;3;3;
80628;PMS5003;69983;42.370;-71.210;2023-05-07T04:32:25;3;3;
80628;PMS5003;69983;42.370;-71.210;2023-05-07T04:34:50;2;2;
80628;PMS5003;69983;42.370;-71.210;2023-05-07T04:37:15;2;2;
80628;PMS5003;69983;42.370;-71.210;2023-05-07T04:39:40;4;3;
80628;PMS5003;69983;42.370;-71.210;2023-05-07T04:42:05;2;2;
80628;PMS5003;69983;42.370;-71.210;2023-05-07T04:44:31;2;2;
80628;PMS5003;69983;42.370;-71.210;2023-05-07T04:46:56;128;94;
80628;PMS5003;69983;42.370;-71.210;2023-05-07T04:49:21;204;160;
80628;PMS5003;69983;42.370;-71.210;2023-05-07T04:51:47;152;108;
80628;PMS5003;69983;42.370;-71.210;2023-05-07T04:54:12;101;82;
80628;PMS5003;69983;42.370;-71.210;2023-05-07T04:56:38;69;59;
80628;PMS5003;69983;42.370;-71.210;2023-05-07T04:59:03;57;43;
80628;PMS5003;69983;42.370;-71.210;2023-05-07T05:01:28;39;32;
80628;PMS5003;69983;42.370;-71.210;2023-05-07T05:03:53;25;22;
80628;PMS5003;69983;42.370;-71.210;2023-05-07T05:06:19;22;18;
80628;PMS5003;69983;42.370;-71.210;2023-05-07T05:08:44;16;15;
80628;PMS5003;69983;42.370;-71.210;2023-05-07T05:11:09;14;12;
80628;PMS5003;69983;42.370;-71.210;2023-05-07T05:13:35;11;9;
80628;PMS5003;69983;42.370;-71.210;2023-05-07T05:16:00;5;3;
80628;PMS5003;69983;42.370;-71.210;2023-05-07T05:18:25;3;3;
80628;PMS5003;69983;42.370;-71.210;2023-05-07T05:20:51;2;2;
80628;PMS5003;69983;42.370;-71.210;2023-05-07T05:23:17;158;117;
80628;PMS5003;69983;42.370;-71.210;2023-05-07T05:25:42;140;107;
80628;PMS5003;69983;42.370;-71.210;2023-05-07T05:28:07;83;69;
80628;PMS5003;69983;42.370;-71.210;2023-05-07T05:30:33;82;58;
80628;PMS5003;69983;42.370;-71.210;2023-05-07T05:32:58;47;35;
80628;PMS5003;69983;42.370;-71.210;2023-05-07T05:35:23;35;29;
80628;PMS5003;69983;42.370;-71.210;2023-05-07T05:37:48;26;19;
80628;PMS5003;69983;42.370;-71.210;2023-05-07T05:40:14;46;33;
80628;PMS5003;69983;42.370;-71.210;2023-05-07T05:42:39;140;103;
80628;PMS5003;69983;42.370;-71.210;2023-05-07T05:45:05;195;145;
80628;PMS5003;69983;42.370;-71.210;2023-05-07T05:47:30;167;133;
80628;PMS5003;69983;42.370;-71.210;2023-05-07T05:49:56;132;95;
80628;PMS5003;69983;42.370;-71.210;2023-05-07T05:52:21;83;68;
80628;PMS5003;69983;42.370;-71.210;2023-05-07T05:54:46;59;45;
80628;PMS5003;69983;42.370;-71.210;2023-05-07T05:57:12;47;35;
80628;PMS5003;69983;42.370;-71.210;2023-05-07T05:59:38;719;567;
80628;PMS5003;69983;42.370;-71.210;2023-05-07T06:02:04;375;300;
80628;PMS5003;69983;42.370;-71.210;2023-05-07T06:04:29;247;207;
80628;PMS5003;69983;42.370;-71.210;2023-05-07T06:06:55;158;136;
80628;PMS5003;69983;42.370;-71.210;2023-05-07T06:09:20;225;154;
80628;PMS5003;69983;42.370;-71.210;2023-05-07T06:11:46;185;135;
80628;PMS5003;69983;42.370;-71.210;2023-05-07T06:14:12;159;108;
80628;PMS5003;69983;42.370;-71.210;2023-05-07T06:16:37;151;106;
80628;PMS5003;69983;42.370;-71.210;2023-05-07T06:19:02;145;96;
80628;PMS5003;69983;42.370;-71.210;2023-05-07T06:21:28;133;83;
80628;PMS5003;69983;42.370;-71.210;2023-05-07T06:23:53;162;88;
80628;PMS5003;69983;42.370;-71.210;2023-05-07T06:26:19;114;65;
80628;PMS5003;69983;42.370;-71.210;2023-05-07T06:28:44;99;56;
80628;PMS5003;69983;42.370;-71.210;2023-05-07T06:31:11;96;53;
80628;PMS5003;69983;42.370;-71.210;2023-05-07T06:33:35;73;45;
80628;PMS5003;69983;42.370;-71.210;2023-05-07T06:36:00;101;81;
80628;PMS5003;69983;42.370;-71.210;2023-05-07T06:38:26;89;56;
80628;PMS5003;69983;42.370;-71.210;2023-05-07T06:40:51;51;43;
80628;PMS5003;69983;42.370;-71.210;2023-05-07T06:43:17;42;30;
80628;PMS5003;69983;42.370;-71.210;2023-05-07T06:45:42;28;22;
80628;PMS5003;69983;42.370;-71.210;2023-05-07T06:48:08;23;17;
80628;PMS5003;69983;42.370;-71.210;2023-05-07T06:50:34;26;12;
80628;PMS5003;69983;42.370;-71.210;2023-05-07T06:52:59;14;11;
80628;PMS5003;69983;42.370;-71.210;2023-05-07T06:55:24;15;10;
80628;PMS5003;69983;42.370;-71.210;2023-05-07T06:57:50;131;107;
80628;PMS5003;69983;42.370;-71.210;2023-05-07T07:00:15;104;82;
80628;PMS5003;69983;42.370;-71.210;2023-05-07T07:02:40;88;68;
80628;PMS5003;69983;42.370;-71.210;2023-05-07T07:05:05;66;54;
80628;PMS5003;69983;42.370;-71.210;2023-05-07T07:07:30;332;237;
80628;PMS5003;69983;42.370;-71.210;2023-05-07T07:09:56;155;121;
80628;PMS5003;69983;42.370;-71.210;2023-05-07T07:12:21;126;94;
80628;PMS5003;69983;42.370;-71.210;2023-05-07T07:14:47;96;70;
80628;PMS5003;69983;42.370;-71.210;2023-05-07T07:17:12;84;55;
80628;PMS5003;69983;42.370;-71.210;2023-05-07T07:19:38;58;45;
80628;PMS5003;69983;42.370;-71.210;2023-05-07T07:22:03;46;34;
80628;PMS5003;69983;42.370;-71.210;2023-05-07T07:24:29;28;23;
80628;PMS5003;69983;42.370;-71.210;2023-05-07T07:26:54;20;18;
80628;PMS5003;69983;42.370;-71.210;2023-05-07T07:29:20;18;15;
80628;PMS5003;69983;42.370;-71.210;2023-05-07T07:31:45;19;13;
80628;PMS5003;69983;42.370;-71.210;2023-05-07T07:34:10;13;9;
80628;PMS5003;69983;42.370;-71.210;2023-05-07T07:36:35;10;7;
80628;PMS5003;69983;42.370;-71.210;2023-05-07T07:39:00;6;4;
80628;PMS5003;69983;42.370;-71.210;2023-05-07T07:41:25;4;4;
80628;PMS5003;69983;42.370;-71.210;2023-05-07T07:43:50;6;4;
80628;PMS5003;69983;42.370;-71.210;2023-05-07T07:46:16;5;3;
80628;PMS5003;69983;42.370;-71.210;2023-05-07T07:48:41;3;3;
80628;PMS5003;69983;42.370;-71.210;2023-05-07T07:51:06;3;2;
80628;PMS5003;69983;42.370;-71.210;2023-05-07T07:53:31;1;1;
80628;PMS5003;69983;42.370;-71.210;2023-05-07T07:55:56;6;1;
80628;PMS5003;69983;42.370;-71.210;2023-05-07T07:58:21;1;1;
80628;PMS5003;69983;42.370;-71.210;2023-05-07T08:00:46;2;1;
80628;PMS5003;69983;42.370;-71.210;2023-05-07T08:03:12;3;2;
80628;PMS5003;69983;42.370;-71.210;2023-05-07T08:05:37;1;1;
80628;PMS5003;69983;42.370;-71.210;2023-05-07T08:08:02;1;1;
80628;PMS5003;69983;42.370;-71.210;2023-05-07T08:10:27;2;2;
80628;PMS5003;69983;42.370;-71.210;2023-05-07T08:12:52;1;1;
80628;PMS5003;69983;42.370;-71.210;2023-05-07T08:15:17;0;0;
80628;PMS5003;69983;42.370;-71.210;2023-05-07T08:17:42;0;0;
80628;PMS5003;69983;42.370;-71.210;2023-05-07T08:20:07;0;0;
80628;PMS5003;69983;42.370;-71.210;2023-05-07T08:22:33;1;1;
80628;PMS5003;69983;42.370;-71.210;2023-05-07T08:24:58;0;0;
80628;PMS5003;69983;42.370;-71.210;2023-05-07T08:27:23;0;0;
80628;PMS5003;69983;42.370;-71.210;2023-05-07T08:29:48;0;0;
80628;PMS5003;69983;42.370;-71.210;2023-05-07T08:32:13;0;0;
80628;PMS5003;69983;42.370;-71.210;2023-05-07T08:34:38;1;0;
80628;PMS5003;69983;42.370;-71.210;2023-05-07T08:37:03;0;0;
80628;PMS5003;69983;42.370;-71.210;2023-05-07T08:39:28;0;0;
80628;PMS5003;69983;42.370;-71.210;2023-05-07T08:41:54;0;0;
80628;PMS5003;69983;42.370;-71.210;2023-05-07T08:44:18;0;0;
80628;PMS5003;69983;42.370;-71.210;2023-05-07T08:46:43;0;0;
80628;PMS5003;69983;42.370;-71.210;2023-05-07T08:49:09;0;0;
80628;PMS5003;69983;42.370;-71.210;2023-05-07T08:51:34;0;0;
80628;PMS5003;69983;42.370;-71.210;2023-05-07T08:53:59;0;0;
80628;PMS5003;69983;42.370;-71.210;2023-05-07T08:56:24;0;0;
80628;PMS5003;69983;42.370;-71.210;2023-05-07T08:58:49;0;0;
80628;PMS5003;69983;42.370;-71.210;2023-05-07T09:01:15;0;0;
80628;PMS5003;69983;42.370;-71.210;2023-05-07T09:03:39;0;0;
80628;PMS5003;69983;42.370;-71.210;2023-05-07T09:06:05;0;0;
80628;PMS5003;69983;42.370;-71.210;2023-05-07T09:08:30;0;0;
80628;PMS5003;69983;42.370;-71.210;2023-05-07T09:10:55;0;0;
80628;PMS5003;69983;42.370;-71.210;2023-05-07T09:13:20;0;0;
80628;PMS5003;69983;42.370;-71.210;2023-05-07T09:15:45;0;0;
80628;PMS5003;69983;42.370;-71.210;2023-05-07T09:18:10;0;0;
80628;PMS5003;69983;42.370;-71.210;2023-05-07T09:20:36;0;0;
80628;PMS5003;69983;42.370;-71.210;2023-05-07T09:23:00;0;0;
80628;PMS5003;69983;42.370;-71.210;2023-05-07T09:25:28;1;0;
80628;PMS5003;69983;42.370;-71.210;2023-05-07T09:27:50;0;0;
80628;PMS5003;69983;42.370;-71.210;2023-05-07T09:30:16;0;0;
80628;PMS5003;69983;42.370;-71.210;2023-05-07T09:32:41;0;0;
80628;PMS5003;69983;42.370;-71.210;2023-05-07T09:35:06;0;0;
80628;PMS5003;69983;42.370;-71.210;2023-05-07T09:37:31;0;0;
80628;PMS5003;69983;42.370;-71.210;2023-05-07T09:39:56;0;0;
80628;PMS5003;69983;42.370;-71.210;2023-05-07T09:42:23;0;0;
80628;PMS5003;69983;42.370;-71.210;2023-05-07T09:44:46;0;0;
80628;PMS5003;69983;42.370;-71.210;2023-05-07T09:47:11;0;0;
80628;PMS5003;69983;42.370;-71.210;2023-05-07T09:49:37;0;0;
80628;PMS5003;69983;42.370;-71.210;2023-05-07T09:52:02;0;0;
80628;PMS5003;69983;42.370;-71.210;2023-05-07T09:54:27;0;0;
80628;PMS5003;69983;42.370;-71.210;2023-05-07T09:56:52;0;0;
80628;PMS5003;69983;42.370;-71.210;2023-05-07T09:59:17;0;0;
80628;PMS5003;69983;42.370;-71.210;2023-05-07T10:01:42;0;0;
80628;PMS5003;69983;42.370;-71.210;2023-05-07T10:04:07;0;0;
80628;PMS5003;69983;42.370;-71.210;2023-05-07T10:06:32;0;0;
80628;PMS5003;69983;42.370;-71.210;2023-05-07T10:08:57;0;0;
80628;PMS5003;69983;42.370;-71.210;2023-05-07T10:11:22;0;0;
80628;PMS5003;69983;42.370;-71.210;2023-05-07T10:13:47;0;0;
80628;PMS5003;69983;42.370;-71.210;2023-05-07T10:16:12;0;0;
80628;PMS5003;69983;42.370;-71.210;2023-05-07T10:18:38;0;0;
80628;PMS5003;69983;42.370;-71.210;2023-05-07T10:21:04;0;0;
80628;PMS5003;69983;42.370;-71.210;2023-05-07T10:23:28;0;0;
80628;PMS5003;69983;42.370;-71.210;2023-05-07T10:25:53;0;0;
80628;PMS5003;69983;42.370;-71.210;2023-05-07T10:28:18;0;0;
80628;PMS5003;69983;42.370;-71.210;2023-05-07T10:30:48;0;0;
80628;PMS5003;69983;42.370;-71.210;2023-05-07T10:33:09;0;0;
80628;PMS5003;69983;42.370;-71.210;2023-05-07T10:35:37;0;0;
80628;PMS5003;69983;42.370;-71.210;2023-05-07T10:37:58;0;0;
80628;PMS5003;69983;42.370;-71.210;2023-05-07T10:40:24;0;0;
80628;PMS5003;69983;42.370;-71.210;2023-05-07T10:42:55;0;0;
80628;PMS5003;69983;42.370;-71.210;2023-05-07T10:45:14;0;0;
80628;PMS5003;69983;42.370;-71.210;2023-05-07T10:52:29;0;0;
80628;PMS5003;69983;42.370;-71.210;2023-05-07T10:59:44;0;0;
80628;PMS5003;69983;42.370;-71.210;2023-05-07T11:02:09;0;0;
80628;PMS5003;69983;42.370;-71.210;2023-05-07T11:04:35;0;0;
80628;PMS5003;69983;42.370;-71.210;2023-05-07T11:09:25;131;114;
80628;PMS5003;69983;42.370;-71.210;2023-05-07T11:11:51;135;118;
80628;PMS5003;69983;42.370;-71.210;2023-05-07T11:16:41;76;63;
80628;PMS5003;69983;42.370;-71.210;2023-05-07T11:19:06;60;51;
80628;PMS5003;69983;42.370;-71.210;2023-05-07T11:21:32;41;36;
80628;PMS5003;69983;42.370;-71.210;2023-05-07T11:23:58;40;32;
80628;PMS5003;69983;42.370;-71.210;2023-05-07T11:26:21;28;24;
80628;PMS5003;69983;42.370;-71.210;2023-05-07T11:28:47;22;18;
80628;PMS5003;69983;42.370;-71.210;2023-05-07T11:31:13;14;13;
80628;PMS5003;69983;42.370;-71.210;2023-05-07T11:33:38;15;12;
80628;PMS5003;69983;42.370;-71.210;2023-05-07T11:36:03;7;7;
80628;PMS5003;69983;42.370;-71.210;2023-05-07T11:38:28;9;6;
80628;PMS5003;69983;42.370;-71.210;2023-05-07T11:40:54;4;3;
80628;PMS5003;69983;42.370;-71.210;2023-05-07T11:43:18;4;4;
80628;PMS5003;69983;42.370;-71.210;2023-05-07T11:45:44;5;3;
80628;PMS5003;69983;42.370;-71.210;2023-05-07T11:48:08;2;2;
80628;PMS5003;69983;42.370;-71.210;2023-05-07T11:50:33;2;2;
80628;PMS5003;69983;42.370;-71.210;2023-05-07T11:52:59;4;1;
80628;PMS5003;69983;42.370;-71.210;2023-05-07T11:55:24;1;1;
80628;PMS5003;69983;42.370;-71.210;2023-05-07T11:57:49;1;1;
80628;PMS5003;69983;42.370;-71.210;2023-05-07T12:00:15;0;0;
80628;PMS5003;69983;42.370;-71.210;2023-05-07T12:02:39;0;0;
80628;PMS5003;69983;42.370;-71.210;2023-05-07T12:05:04;0;0;
80628;PMS5003;69983;42.370;-71.210;2023-05-07T12:07:29;0;0;
80628;PMS5003;69983;42.370;-71.210;2023-05-07T12:09:54;0;0;
80628;PMS5003;69983;42.370;-71.210;2023-05-07T12:12:19;0;0;
80628;PMS5003;69983;42.370;-71.210;2023-05-07T12:14:45;2;0;
80628;PMS5003;69983;42.370;-71.210;2023-05-07T12:17:10;0;0;
80628;PMS5003;69983;42.370;-71.210;2023-05-07T12:19:36;0;0;
80628;PMS5003;69983;42.370;-71.210;2023-05-07T12:22:00;0;0;
80628;PMS5003;69983;42.370;-71.210;2023-05-07T12:24:25;0;0;
80628;PMS5003;69983;42.370;-71.210;2023-05-07T12:26:50;0;0;
80628;PMS5003;69983;42.370;-71.210;2023-05-07T12:29:15;0;0;
80628;PMS5003;69983;42.370;-71.210;2023-05-07T12:31:41;0;0;
80628;PMS5003;69983;42.370;-71.210;2023-05-07T12:34:05;0;0;
80628;PMS5003;69983;42.370;-71.210;2023-05-07T12:38:56;0;0;
80628;PMS5003;69983;42.370;-71.210;2023-05-07T12:41:21;0;0;
80628;PMS5003;69983;42.370;-71.210;2023-05-07T12:43:46;0;0;
80628;PMS5003;69983;42.370;-71.210;2023-05-07T12:46:11;0;0;
80628;PMS5003;69983;42.370;-71.210;2023-05-07T12:48:37;0;0;
80628;PMS5003;69983;42.370;-71.210;2023-05-07T12:51:01;0;0;
80628;PMS5003;69983;42.370;-71.210;2023-05-07T12:53:27;0;0;
80628;PMS5003;69983;42.370;-71.210;2023-05-07T12:55:52;0;0;
80628;PMS5003;69983;42.370;-71.210;2023-05-07T12:58:17;0;0;
80628;PMS5003;69983;42.370;-71.210;2023-05-07T13:00:42;0;0;
80628;PMS5003;69983;42.370;-71.210;2023-05-07T13:03:07;0;0;
80628;PMS5003;69983;42.370;-71.210;2023-05-07T13:05:32;0;0;
80628;PMS5003;69983;42.370;-71.210;2023-05-07T13:07:57;0;0;
80628;PMS5003;69983;42.370;-71.210;2023-05-07T13:10:22;0;0;
80628;PMS5003;69983;42.370;-71.210;2023-05-07T13:12:47;0;0;
80628;PMS5003;69983;42.370;-71.210;2023-05-07T13:15:12;0;0;
80628;PMS5003;69983;42.370;-71.210;2023-05-07T13:17:37;0;0;
80628;PMS5003;69983;42.370;-71.210;2023-05-07T13:20:03;0;0;
80628;PMS5003;69983;42.370;-71.210;2023-05-07T13:22:27;0;0;
80628;PMS5003;69983;42.370;-71.210;2023-05-07T13:24:52;0;0;
80628;PMS5003;69983;42.370;-71.210;2023-05-07T13:27:18;0;0;
80628;PMS5003;69983;42.370;-71.210;2023-05-07T13:29:43;0;0;
80628;PMS5003;69983;42.370;-71.210;2023-05-07T13:32:08;0;0;
80628;PMS5003;69983;42.370;-71.210;2023-05-07T13:34:33;0;0;
80628;PMS5003;69983;42.370;-71.210;2023-05-07T13:36:58;0;0;
80628;PMS5003;69983;42.370;-71.210;2023-05-07T13:39:23;0;0;
80628;PMS5003;69983;42.370;-71.210;2023-05-07T13:41:48;0;0;
80628;PMS5003;69983;42.370;-71.210;2023-05-07T13:44:13;0;0;
80628;PMS5003;69983;42.370;-71.210;2023-05-07T13:46:38;0;0;
80628;PMS5003;69983;42.370;-71.210;2023-05-07T13:49:03;0;0;
80628;PMS5003;69983;42.370;-71.210;2023-05-07T13:51:29;0;0;
80628;PMS5003;69983;42.370;-71.210;2023-05-07T13:53:54;0;0;
80628;PMS5003;69983;42.370;-71.210;2023-05-07T13:56:19;0;0;
80628;PMS5003;69983;42.370;-71.210;2023-05-07T13:58:44;0;0;
80628;PMS5003;69983;42.370;-71.210;2023-05-07T14:01:09;0;0;
80628;PMS5003;69983;42.370;-71.210;2023-05-07T14:03:34;0;0;
80628;PMS5003;69983;42.370;-71.210;2023-05-07T14:05:59;0;0;
80628;PMS5003;69983;42.370;-71.210;2023-05-07T14:08:25;0;0;
80628;PMS5003;69983;42.370;-71.210;2023-05-07T14:10:49;0;0;
80628;PMS5003;69983;42.370;-71.210;2023-05-07T14:13:15;0;0;
80628;PMS5003;69983;42.370;-71.210;2023-05-07T14:15:40;0;0;
80628;PMS5003;69983;42.370;-71.210;2023-05-07T14:18:05;0;0;
80628;PMS5003;69983;42.370;-71.210;2023-05-07T14:20:30;0;0;
80628;PMS5003;69983;42.370;-71.210;2023-05-07T14:22:55;0;0;
80628;PMS5003;69983;42.370;-71.210;2023-05-07T14:25:20;0;0;
80628;PMS5003;69983;42.370;-71.210;2023-05-07T14:27:45;0;0;
80628;PMS5003;69983;42.370;-71.210;2023-05-07T14:30:11;0;0;
80628;PMS5003;69983;42.370;-71.210;2023-05-07T14:32:35;0;0;
80628;PMS5003;69983;42.370;-71.210;2023-05-07T14:35:01;0;0;
80628;PMS5003;69983;42.370;-71.210;2023-05-07T14:37:26;0;0;
80628;PMS5003;69983;42.370;-71.210;2023-05-07T14:39:51;0;0;
80628;PMS5003;69983;42.370;-71.210;2023-05-07T14:42:16;0;0;
80628;PMS5003;69983;42.370;-71.210;2023-05-07T14:44:41;0;0;
80628;PMS5003;69983;42.370;-71.210;2023-05-07T14:47:06;0;0;
80628;PMS5003;69983;42.370;-71.210;2023-05-07T14:49:31;0;0;
80628;PMS5003;69983;42.370;-71.210;2023-05-07T14:51:57;0;0;
80628;PMS5003;69983;42.370;-71.210;2023-05-07T14:54:21;0;0;
80628;PMS5003;69983;42.370;-71.210;2023-05-07T14:56:47;0;0;
80628;PMS5003;69983;42.370;-71.210;2023-05-07T14:59:12;0;0;
80628;PMS5003;69983;42.370;-71.210;2023-05-07T15:01:37;0;0;
80628;PMS5003;69983;42.370;-71.210;2023-05-07T15:04:02;0;0;
80628;PMS5003;69983;42.370;-71.210;2023-05-07T15:06:27;0;0;
80628;PMS5003;69983;42.370;-71.210;2023-05-07T15:08:52;0;0;
80628;PMS5003;69983;42.370;-71.210;2023-05-07T15:11:17;0;0;
80628;PMS5003;69983;42.370;-71.210;2023-05-07T15:13:42;0;0;
80628;PMS5003;69983;42.370;-71.210;2023-05-07T15:16:07;0;0;
80628;PMS5003;69983;42.370;-71.210;2023-05-07T15:18:32;0;0;
80628;PMS5003;69983;42.370;-71.210;2023-05-07T15:20:58;0;0;
80628;PMS5003;69983;42.370;-71.210;2023-05-07T15:23:23;0;0;
80628;PMS5003;69983;42.370;-71.210;2023-05-07T15:25:48;0;0;
80628;PMS5003;69983;42.370;-71.210;2023-05-07T15:28:13;0;0;
80628;PMS5003;69983;42.370;-71.210;2023-05-07T15:30:38;0;0;
80628;PMS5003;69983;42.370;-71.210;2023-05-07T15:33:03;0;0;
80628;PMS5003;69983;42.370;-71.210;2023-05-07T15:35:28;0;0;
80628;PMS5003;69983;42.370;-71.210;2023-05-07T15:37:53;0;0;
80628;PMS5003;69983;42.370;-71.210;2023-05-07T15:40:18;0;0;
80628;PMS5003;69983;42.370;-71.210;2023-05-07T15:42:44;0;0;
80628;PMS5003;69983;42.370;-71.210;2023-05-07T15:45:09;0;0;
80628;PMS5003;69983;42.370;-71.210;2023-05-07T15:47:34;0;0;
80628;PMS5003;69983;42.370;-71.210;2023-05-07T15:49:59;0;0;
80628;PMS5003;69983;42.370;-71.210;2023-05-07T15:52:24;0;0;
80628;PMS5003;69983;42.370;-71.210;2023-05-07T15:54:49;0;0;
80628;PMS5003;69983;42.370;-71.210;2023-05-07T15:57:14;0;0;
80628;PMS5003;69983;42.370;-71.210;2023-05-07T15:59:39;0;0;
80628;PMS5003;69983;42.370;-71.210;2023-05-07T16:02:04;0;0;